Scroll down
FLIGHT INFORMATION
Federal Express (FedEx)

FDX5384

At Arrival Gate

VIDP
 ZGGG
DATE: 2021-02-23
GATE: 
GATE DEPARTURE: 13:20
TAKEOFF: 13:39
DATE: 2021-02-23
GATE:  -
LANDING: 17:54
GATE ARRIVAL: 18:02
FLIGHT DATA
Crew: 
Speed: 
518 kts
Altitude: 
37,109 ft
Stage Length: 
1,970.7 nm
Block Time: 
4.7 hrs
Flight Time: 
4.3 hrs
Fuel Used: 
74,937 lb
Cleared Route: VIDP ALI PAVRU LKN BODOG PPT MONDA BIKIK TEBID RAJ BOGEP AAT TEBUL ANSOS LSO LINSO GMA MAKUL GULOT SGM LXI ADBAG MEPAN BSE DUDIT LBN ATLAT BIPOP AVPAM GYA ZGGG
TRACK DATA
50,000 ft 1,000 kts
AIRCRAFT INFO AND CUMULATIVE STATS
Aircraft Type: 
B77LF
Registration: 
SELCAL: 
AJBL
MSN/LN: 
32967 / 718
Total Flights: 
1
Total Block Time: 
4.7 hrs
Total Flight Time: 
4.3 hrs
Total Fuel Used: 
74,937 lb
DATALINK LOG | Newest first | Current as of: 2022-10-05 21:56:03
LABEL SEQUENCE CONTENT Dn/Up
QD590518:02 24.2▼ Dn
QC495917:54▼ Dn
2U4900ZGGG 231630Z 11002MPS 9999 FEW050 21/15 Q1014 NOSIG▲ Up
2S4900ZGGG▼ Dn
QB355013:39▼ Dn
QA163113:20 99.2▼ Dn
2U5816ZGGG 231230Z 15004MPS 9999 BKN043 25/16 Q1012 NOSIG▲ Up
2U5815VIDP 231230Z 26004KT 3500 HZ NSC 27/09 Q1011 NOSIG▲ Up
2U5815VHHH 231230Z 08014KT CAVOK 21/16 Q1014 NOSIG▲ Up
2S5814VIDP ZGGG VHHH▼ Dn
A35813CLEARED TO ZGGG VIA ALI R460 LKN A201 LSO A599 linso a599 gya. SQUAWK 3224.▲ Up
Q05712[LINK ACK]▲ Up
Q05712[LINK TEST]▼ Dn


AIRCRAFT HISTORY
FLIGHT DATE FLIGHT NO. ORIGIN DESTINATION CLEARED ROUTE BLOCK TIME FLIGHT TIME FUEL USED PILOT
2021-02-23FDX5384VIDP ZGGG VIDP ALI PAVRU LKN BODOG PPT MONDA BIKIK TEBID RAJ BOGEP AAT TEBUL ANSOS LSO LINSO GMA MAKUL GULOT SGM LXI ADBAG MEPAN BSE DUDIT LBN ATLAT BIPOP AVPAM GYA ZGGG4.7 hrs4.3 hrs74,937 lbAllan Burek